createdAt,value
2023-02-23T00:03:16.976Z,80.4
2023-02-23T00:09:14.197Z,80.2
2023-02-23T00:14:47.244Z,80
2023-02-23T00:20:47.670Z,80
2023-02-23T00:26:44.943Z,79.7
2023-02-23T00:32:30.993Z,79.8
2023-02-23T00:38:51.616Z,79.8
2023-02-23T00:44:35.855Z,80.1
2023-02-23T00:50:19.823Z,80.3
2023-02-23T00:55:57.366Z,80.4
2023-02-23T01:01:33.907Z,80.5
2023-02-23T01:07:42.947Z,80.5
2023-02-23T01:13:16.087Z,80.5
2023-02-23T01:18:55.241Z,80.4
2023-02-23T01:24:30.313Z,80.4
2023-02-23T01:30:05.568Z,80.3
2023-02-23T01:35:52.375Z,80.1
2023-02-23T01:41:32.788Z,80.1
2023-02-23T01:47:09.210Z,80.2
2023-02-23T01:53:01.199Z,80
2023-02-23T01:58:43.683Z,80
2023-02-23T02:04:18.637Z,80
2023-02-23T02:09:54.385Z,80.1
2023-02-23T02:15:50.446Z,80.1
2023-02-23T02:21:26.581Z,80.2
2023-02-23T02:27:02.217Z,80.2
2023-02-23T02:32:37.541Z,80.2
2023-02-23T02:38:16.088Z,80.1
2023-02-23T02:43:52.685Z,79.9
2023-02-23T02:49:31.254Z,79.6
2023-02-23T02:55:07.664Z,79.7
2023-02-23T03:00:43.704Z,79.7
2023-02-23T03:06:40.375Z,79.6
2023-02-23T03:12:14.136Z,79.5
2023-02-23T03:17:49.263Z,79.2
2023-02-23T03:23:31.077Z,78.8
2023-02-23T03:29:09.999Z,78.6
2023-02-23T03:34:46.017Z,78.6
2023-02-23T03:40:24.834Z,78.4
2023-02-23T03:46:11.223Z,78.3
2023-02-23T03:52:12.776Z,78.4
2023-02-23T03:57:47.765Z,78.2
2023-02-23T04:03:39.761Z,78.3
2023-02-23T04:09:15.714Z,78.1
2023-02-23T04:14:50.916Z,78.4
2023-02-23T04:20:26.724Z,78.6
2023-02-23T04:26:28.506Z,78.7
2023-02-23T04:32:05.332Z,78.9
2023-02-23T04:38:02.090Z,78.6
2023-02-23T04:43:59.513Z,78.9
2023-02-23T04:49:42.064Z,79.5
2023-02-23T04:55:17.250Z,79.8
2023-02-23T05:00:52.996Z,80
2023-02-23T05:07:09.337Z,80.1
2023-02-23T05:12:42.348Z,79.6
2023-02-23T05:18:18.886Z,79.2
2023-02-23T05:23:55.626Z,78.4
2023-02-23T05:29:37.965Z,78.2
2023-02-23T05:35:13.777Z,78.4
2023-02-23T05:40:52.256Z,78.6
2023-02-23T05:46:36.123Z,77.7
2023-02-23T05:52:14.095Z,77.9
2023-02-23T05:57:55.854Z,77.9
2023-02-23T06:03:34.770Z,77.1
2023-02-23T06:09:10.188Z,77.4
2023-02-23T06:14:45.382Z,77.1
2023-02-23T06:20:29.018Z,76.7
2023-02-23T06:26:05.253Z,76.2
2023-02-23T06:31:40.469Z,75.6
2023-02-23T06:37:17.431Z,75.3
2023-02-23T06:43:01.036Z,75
2023-02-23T06:48:37.412Z,75
2023-02-23T06:54:12.787Z,75.3
2023-02-23T07:00:19.663Z,75
2023-02-23T07:06:16.889Z,75.2
2023-02-23T07:11:49.852Z,74.9
2023-02-23T07:17:32.665Z,74.9
2023-02-23T07:23:07.624Z,74.5
2023-02-23T07:28:43.303Z,74.4
2023-02-23T07:34:18.626Z,74.7
2023-02-23T07:40:09.960Z,76.5
2023-02-23T07:45:47.178Z,79.4
2023-02-23T07:51:24.343Z,81.4
2023-02-23T07:57:12.134Z,79.4
2023-02-23T08:02:55.305Z,80.2
2023-02-23T08:08:52.849Z,82
2023-02-23T08:14:26.835Z,83
2023-02-23T08:20:01.760Z,83.4
2023-02-23T08:25:36.870Z,84.3
2023-02-23T08:31:12.389Z,83.6
2023-02-23T08:36:49.665Z,83
2023-02-23T08:42:26.921Z,84.1
2023-02-23T08:48:02.143Z,84.3
2023-02-23T08:53:37.232Z,84.5
2023-02-23T08:59:12.470Z,85.1
2023-02-23T09:04:47.833Z,85.2
2023-02-23T09:10:22.707Z,85.1
2023-02-23T09:15:58.884Z,84.4
2023-02-23T09:21:35.161Z,83.6
2023-02-23T09:27:31.339Z,83.7
2023-02-23T09:33:24.856Z,83.8
2023-02-23T09:38:59.606Z,83.8
2023-02-23T09:45:26.205Z,83.4
2023-02-23T09:51:01.356Z,80.9
2023-02-23T09:56:36.493Z,77.9
2023-02-23T10:02:17.261Z,76.9
2023-02-23T10:07:52.662Z,79.1
2023-02-23T10:13:31.890Z,80.6
2023-02-23T10:19:09.891Z,80.2
2023-02-23T10:24:48.423Z,80.3
2023-02-23T10:30:30.246Z,79.7
2023-02-23T10:36:14.151Z,79.6
2023-02-23T10:41:58.663Z,79.9
2023-02-23T10:47:39.051Z,79.4
2023-02-23T10:53:14.569Z,77.4
2023-02-23T10:58:50.058Z,77.4
2023-02-23T11:04:47.507Z,75.2
2023-02-23T11:10:37.104Z,74
2023-02-23T11:16:38.849Z,72.6
2023-02-23T11:22:17.544Z,72.6
2023-02-23T11:28:03.000Z,72.5
2023-02-23T11:33:39.319Z,74.2
2023-02-23T11:39:17.068Z,72.2
2023-02-23T11:44:52.568Z,69.5
2023-02-23T11:50:28.006Z,69
2023-02-23T11:56:14.679Z,68.5
2023-02-23T12:01:59.446Z,69.8
2023-02-23T12:07:34.689Z,67.8
2023-02-23T12:13:33.360Z,67.4
2023-02-23T12:19:08.567Z,67.2
2023-02-23T12:24:52.033Z,66.6
2023-02-23T12:30:46.494Z,65.8
2023-02-23T12:37:17.257Z,69.3
2023-02-23T12:42:56.864Z,69.7
2023-02-23T12:48:42.615Z,67.2
2023-02-23T12:54:25.992Z,67.9
2023-02-23T13:00:02.051Z,68
2023-02-23T13:05:43.693Z,65.8
2023-02-23T13:11:22.152Z,66.4
2023-02-23T13:16:58.088Z,65.4
2023-02-23T13:22:34.486Z,65
2023-02-23T13:28:15.110Z,65.5
2023-02-23T13:34:21.260Z,67.4
2023-02-23T13:40:00.193Z,68
2023-02-23T13:45:39.384Z,70.9
2023-02-23T13:51:27.866Z,74.3
2023-02-23T13:57:08.374Z,74.3
2023-02-23T14:02:44.089Z,74.1
2023-02-23T14:08:20.590Z,74.5
2023-02-23T14:14:08.325Z,73.4
2023-02-23T14:20:30.228Z,76.7
2023-02-23T14:26:06.288Z,76.7
2023-02-23T14:31:46.867Z,78.8
2023-02-23T14:37:24.496Z,79.3
2023-02-23T14:43:08.956Z,80.6
2023-02-23T14:48:43.643Z,81.2
2023-02-23T14:54:19.300Z,82.6
2023-02-23T14:59:55.230Z,84
2023-02-23T15:05:30.676Z,84
2023-02-23T15:11:17.161Z,77.3
2023-02-23T15:16:56.829Z,80.7
2023-02-23T15:22:37.155Z,82.4
2023-02-23T15:28:14.996Z,76.4
2023-02-23T15:33:51.318Z,75.5
2023-02-23T15:39:30.349Z,79.3
2023-02-23T15:45:06.073Z,80.7
2023-02-23T15:50:42.110Z,82.7
2023-02-23T15:56:17.446Z,84.5
2023-02-23T16:01:59.852Z,83.7
2023-02-23T16:07:36.300Z,85.1
2023-02-23T16:13:18.853Z,84
2023-02-23T16:19:43.110Z,87.7
2023-02-23T16:25:21.015Z,85.6
2023-02-23T16:30:56.271Z,82.4
2023-02-23T16:36:33.166Z,88.4
2023-02-23T16:42:14.178Z,91.4
2023-02-23T16:47:49.399Z,89.9
2023-02-23T16:53:29.360Z,89.1
2023-02-23T16:59:04.870Z,87.3
2023-02-23T17:05:02.213Z,86.6
2023-02-23T17:10:41.067Z,86.7
2023-02-23T17:16:20.697Z,84.7
2023-02-23T17:22:00.509Z,84.8
2023-02-23T17:27:59.344Z,85
2023-02-23T17:33:40.454Z,84.7
2023-02-23T17:39:26.396Z,84.4
2023-02-23T17:45:09.406Z,85
2023-02-23T17:50:47.106Z,80.9
2023-02-23T17:56:22.685Z,79.4
2023-02-23T18:01:58.939Z,78.5
2023-02-23T18:07:36.260Z,77.5
2023-02-23T18:13:12.755Z,76.7
2023-02-23T18:18:49.159Z,76.3
2023-02-23T18:24:25.189Z,75.8
2023-02-23T18:30:00.829Z,75.5
2023-02-23T18:35:36.729Z,74.8
2023-02-23T18:41:12.465Z,74.3
2023-02-23T18:46:48.314Z,74.1
2023-02-23T18:52:23.830Z,74
2023-02-23T18:57:59.301Z,74
2023-02-23T19:03:34.483Z,73.3
2023-02-23T19:09:15.207Z,73.1
2023-02-23T19:14:50.485Z,72.7
2023-02-23T19:20:25.500Z,72.8
2023-02-23T19:26:00.495Z,72.9
2023-02-23T19:31:36.775Z,72.5
2023-02-23T19:37:14.904Z,72.3
2023-02-23T19:42:50.908Z,72.4
2023-02-23T19:48:26.597Z,72.2
2023-02-23T19:54:01.822Z,72
2023-02-23T19:59:36.913Z,72.1
2023-02-23T20:05:12.834Z,72.2
2023-02-23T20:10:48.754Z,72
2023-02-23T20:16:23.741Z,71.9
2023-02-23T20:22:00.783Z,71.8
2023-02-23T20:27:36.770Z,71.7
2023-02-23T20:33:15.012Z,72
2023-02-23T20:38:50.146Z,71.8
2023-02-23T20:44:25.423Z,71.5
2023-02-23T20:50:00.834Z,71.4
2023-02-23T20:55:35.974Z,71.4
2023-02-23T21:01:11.498Z,71.2
2023-02-23T21:06:47.244Z,71
2023-02-23T21:12:22.803Z,71.3
2023-02-23T21:17:58.346Z,71.2
2023-02-23T21:23:34.454Z,71.2
2023-02-23T21:29:09.297Z,71.2
2023-02-23T21:34:44.288Z,71.4
2023-02-23T21:40:19.146Z,71.3
2023-02-23T21:45:54.570Z,71.2
2023-02-23T21:51:29.663Z,71.5
2023-02-23T21:57:05.515Z,71.4
2023-02-23T22:02:41.062Z,71.3
2023-02-23T22:08:17.125Z,71.4
2023-02-23T22:13:52.138Z,71.4
2023-02-23T22:19:30.418Z,71.6
2023-02-23T22:25:05.716Z,71.7
2023-02-23T22:30:40.931Z,71.2
2023-02-23T22:36:16.182Z,71.1
2023-02-23T22:41:51.209Z,71.4
2023-02-23T22:47:26.592Z,71.5
2023-02-23T22:53:02.303Z,71.3
2023-02-23T22:58:37.423Z,71.2
2023-02-23T23:04:14.241Z,71.2
2023-02-23T23:09:53.645Z,71.1
2023-02-23T23:15:29.660Z,71.1
2023-02-23T23:21:04.563Z,71
2023-02-23T23:26:40.029Z,71.3
2023-02-23T23:32:15.907Z,71.3
2023-02-23T23:37:53.410Z,71.4
2023-02-23T23:43:28.922Z,71.5
2023-02-23T23:49:04.376Z,71.3
2023-02-23T23:54:39.810Z,71.7
